sensor_id;sensor_type;location;lat;lon;timestamp;pressure;altitude;pressure_sealevel;temperature;humidity
63287;BME280;49410;55.708;37.522;2023-01-01T00:00:05;99007.59;;;1.60;78.68
63287;BME280;49410;55.708;37.522;2023-01-01T00:02:31;99009.34;;;1.71;78.18
63287;BME280;49410;55.708;37.522;2023-01-01T00:04:57;99007.25;;;1.75;78.27
63287;BME280;49410;55.708;37.522;2023-01-01T00:07:22;98999.06;;;1.76;78.36
63287;BME280;49410;55.708;37.522;2023-01-01T00:09:48;98995.38;;;1.77;78.04
63287;BME280;49410;55.708;37.522;2023-01-01T00:12:32;99004.28;;;1.78;78.50
63287;BME280;49410;55.708;37.522;2023-01-01T00:14:58;99000.63;;;1.79;78.01
63287;BME280;49410;55.708;37.522;2023-01-01T00:17:24;98989.84;;;1.79;78.56
63287;BME280;49410;55.708;37.522;2023-01-01T00:19:49;98983.31;;;1.81;78.07
63287;BME280;49410;55.708;37.522;2023-01-01T00:22:15;98971.22;;;1.76;78.08
63287;BME280;49410;55.708;37.522;2023-01-01T00:24:40;98977.47;;;1.76;78.51
63287;BME280;49410;55.708;37.522;2023-01-01T00:27:06;98975.97;;;1.83;78.21
63287;BME280;49410;55.708;37.522;2023-01-01T00:29:31;98971.28;;;1.85;77.86
63287;BME280;49410;55.708;37.522;2023-01-01T00:31:57;98973.25;;;1.83;78.21
63287;BME280;49410;55.708;37.522;2023-01-01T00:34:22;98964.13;;;1.75;78.20
63287;BME280;49410;55.708;37.522;2023-01-01T00:36:48;98960.03;;;1.80;78.41
63287;BME280;49410;55.708;37.522;2023-01-01T00:39:13;98960.31;;;1.77;78.32
63287;BME280;49410;55.708;37.522;2023-01-01T00:41:39;98951.63;;;1.74;78.52
63287;BME280;49410;55.708;37.522;2023-01-01T00:44:04;98944.22;;;1.66;79.15
63287;BME280;49410;55.708;37.522;2023-01-01T00:46:30;98929.41;;;1.60;79.30
63287;BME280;49410;55.708;37.522;2023-01-01T00:48:55;98934.84;;;1.70;78.84
63287;BME280;49410;55.708;37.522;2023-01-01T00:51:21;98914.06;;;1.61;79.21
63287;BME280;49410;55.708;37.522;2023-01-01T00:53:47;98913.28;;;1.70;78.59
63287;BME280;49410;55.708;37.522;2023-01-01T00:56:12;98905.47;;;1.67;78.96
63287;BME280;49410;55.708;37.522;2023-01-01T00:58:38;98910.09;;;1.76;78.62
63287;BME280;49410;55.708;37.522;2023-01-01T01:01:03;98901.34;;;1.63;78.65
63287;BME280;49410;55.708;37.522;2023-01-01T01:03:29;98891.28;;;1.65;78.67
63287;BME280;49410;55.708;37.522;2023-01-01T01:06:15;98890.88;;;1.69;78.74
63287;BME280;49410;55.708;37.522;2023-01-01T01:08:43;98894.31;;;1.72;78.99
63287;BME280;49410;55.708;37.522;2023-01-01T01:13:37;98880.69;;;1.73;78.87
63287;BME280;49410;55.708;37.522;2023-01-01T01:16:08;98877.72;;;1.76;78.72
63287;BME280;49410;55.708;37.522;2023-01-01T01:18:34;98864.09;;;1.78;78.73
63287;BME280;49410;55.708;37.522;2023-01-01T01:21:00;98865.63;;;1.70;79.12
63287;BME280;49410;55.708;37.522;2023-01-01T01:23:25;98853.88;;;1.72;78.96
63287;BME280;49410;55.708;37.522;2023-01-01T01:25:51;98856.16;;;1.76;78.91
63287;BME280;49410;55.708;37.522;2023-01-01T01:28:16;98851.59;;;1.77;78.71
63287;BME280;49410;55.708;37.522;2023-01-01T01:30:42;98863.38;;;1.76;78.44
63287;BME280;49410;55.708;37.522;2023-01-01T01:33:07;98852.47;;;1.77;78.63
63287;BME280;49410;55.708;37.522;2023-01-01T01:35:33;98849.78;;;1.77;78.53
63287;BME280;49410;55.708;37.522;2023-01-01T01:37:58;98849.78;;;1.77;78.45
63287;BME280;49410;55.708;37.522;2023-01-01T01:40:24;98842.13;;;1.82;78.71
63287;BME280;49410;55.708;37.522;2023-01-01T01:42:50;98847.13;;;1.87;78.26
63287;BME280;49410;55.708;37.522;2023-01-01T01:45:17;98837.19;;;1.88;78.16
63287;BME280;49410;55.708;37.522;2023-01-01T01:50:27;98831.16;;;1.74;78.78
63287;BME280;49410;55.708;37.522;2023-01-01T01:53:16;98841.28;;;1.82;78.54
63287;BME280;49410;55.708;37.522;2023-01-01T01:55:51;98841.22;;;1.72;79.14
63287;BME280;49410;55.708;37.522;2023-01-01T01:58:18;98827.66;;;1.83;78.83
63287;BME280;49410;55.708;37.522;2023-01-01T02:00:43;98824.66;;;1.77;79.06
63287;BME280;49410;55.708;37.522;2023-01-01T02:05:39;98821.53;;;1.81;78.57
63287;BME280;49410;55.708;37.522;2023-01-01T02:08:06;98821.28;;;1.84;78.29
63287;BME280;49410;55.708;37.522;2023-01-01T02:10:33;98826.81;;;1.83;79.04
63287;BME280;49410;55.708;37.522;2023-01-01T02:12:58;98823.16;;;1.94;78.47
63287;BME280;49410;55.708;37.522;2023-01-01T02:15:29;98815.91;;;1.94;78.42
63287;BME280;49410;55.708;37.522;2023-01-01T02:18:12;98818.75;;;1.93;78.53
63287;BME280;49410;55.708;37.522;2023-01-01T02:20:44;98808.97;;;1.92;78.51
63287;BME280;49410;55.708;37.522;2023-01-01T02:26:33;98801.28;;;1.87;78.84
63287;BME280;49410;55.708;37.522;2023-01-01T02:31:42;98799.72;;;1.84;78.81
63287;BME280;49410;55.708;37.522;2023-01-01T02:34:10;98795.44;;;1.82;79.15
63287;BME280;49410;55.708;37.522;2023-01-01T02:36:42;98785.19;;;1.76;79.48
63287;BME280;49410;55.708;37.522;2023-01-01T02:39:12;98785.91;;;1.78;78.98
63287;BME280;49410;55.708;37.522;2023-01-01T02:41:43;98794.84;;;1.78;79.27
63287;BME280;49410;55.708;37.522;2023-01-01T02:44:12;98787.06;;;1.85;78.97
63287;BME280;49410;55.708;37.522;2023-01-01T02:46:38;98783.84;;;1.91;78.82
63287;BME280;49410;55.708;37.522;2023-01-01T02:49:04;98778.88;;;1.86;78.83
63287;BME280;49410;55.708;37.522;2023-01-01T02:59:30;98741.66;;;1.80;78.90
63287;BME280;49410;55.708;37.522;2023-01-01T03:06:16;98740.41;;;1.94;79.20
63287;BME280;49410;55.708;37.522;2023-01-01T03:11:31;98731.16;;;1.87;79.00
63287;BME280;49410;55.708;37.522;2023-01-01T03:15:00;98739.72;;;1.92;78.90
63287;BME280;49410;55.708;37.522;2023-01-01T03:17:06;98746.81;;;1.93;78.90
63287;BME280;49410;55.708;37.522;2023-01-01T03:19:39;98744.38;;;1.90;79.30
63287;BME280;49410;55.708;37.522;2023-01-01T03:22:12;98731.88;;;1.89;79.29
63287;BME280;49410;55.708;37.522;2023-01-01T03:27:23;98728.63;;;1.85;79.58
63287;BME280;49410;55.708;37.522;2023-01-01T03:29:52;98721.94;;;1.90;79.27
63287;BME280;49410;55.708;37.522;2023-01-01T03:32:27;98717.69;;;1.77;79.90
63287;BME280;49410;55.708;37.522;2023-01-01T03:35:17;98712.16;;;1.89;79.70
63287;BME280;49410;55.708;37.522;2023-01-01T03:37:44;98692.28;;;1.90;79.65
63287;BME280;49410;55.708;37.522;2023-01-01T03:40:13;98682.22;;;1.92;79.46
63287;BME280;49410;55.708;37.522;2023-01-01T03:42:43;98681.06;;;1.94;79.42
63287;BME280;49410;55.708;37.522;2023-01-01T03:45:21;98675.97;;;2.01;79.11
63287;BME280;49410;55.708;37.522;2023-01-01T03:47:48;98659.09;;;1.99;79.19
63287;BME280;49410;55.708;37.522;2023-01-01T03:50:14;98667.47;;;2.06;78.90
63287;BME280;49410;55.708;37.522;2023-01-01T03:55:37;98656.69;;;2.06;79.09
63287;BME280;49410;55.708;37.522;2023-01-01T03:58:17;98656.56;;;2.07;79.09
63287;BME280;49410;55.708;37.522;2023-01-01T04:01:11;98653.41;;;2.02;79.33
63287;BME280;49410;55.708;37.522;2023-01-01T04:03:39;98652.00;;;1.98;79.20
63287;BME280;49410;55.708;37.522;2023-01-01T04:06:06;98648.28;;;1.99;79.11
63287;BME280;49410;55.708;37.522;2023-01-01T04:08:33;98646.31;;;2.01;79.14
63287;BME280;49410;55.708;37.522;2023-01-01T04:11:03;98661.25;;;2.05;79.19
63287;BME280;49410;55.708;37.522;2023-01-01T04:13:50;98626.16;;;1.95;79.15
63287;BME280;49410;55.708;37.522;2023-01-01T04:16:16;98644.34;;;1.93;79.44
63287;BME280;49410;55.708;37.522;2023-01-01T04:18:41;98649.13;;;1.90;79.88
63287;BME280;49410;55.708;37.522;2023-01-01T04:21:07;98631.25;;;1.89;79.76
63287;BME280;49410;55.708;37.522;2023-01-01T04:23:32;98647.72;;;1.95;79.93
63287;BME280;49410;55.708;37.522;2023-01-01T04:25:57;98653.25;;;2.04;79.88
63287;BME280;49410;55.708;37.522;2023-01-01T04:28:23;98635.13;;;1.96;79.51
63287;BME280;49410;55.708;37.522;2023-01-01T04:30:48;98629.56;;;1.97;79.59
63287;BME280;49410;55.708;37.522;2023-01-01T04:33:14;98630.13;;;2.01;79.35
63287;BME280;49410;55.708;37.522;2023-01-01T04:35:39;98633.25;;;1.96;79.86
63287;BME280;49410;55.708;37.522;2023-01-01T04:38:05;98623.34;;;1.97;79.61
63287;BME280;49410;55.708;37.522;2023-01-01T04:40:30;98620.34;;;2.00;80.18
63287;BME280;49410;55.708;37.522;2023-01-01T04:42:56;98625.03;;;1.98;80.11
63287;BME280;49410;55.708;37.522;2023-01-01T04:45:21;98607.59;;;1.92;80.05
63287;BME280;49410;55.708;37.522;2023-01-01T04:47:47;98600.06;;;1.76;80.27
63287;BME280;49410;55.708;37.522;2023-01-01T04:50:12;98629.16;;;1.92;80.47
63287;BME280;49410;55.708;37.522;2023-01-01T04:52:38;98607.69;;;1.91;80.00
63287;BME280;49410;55.708;37.522;2023-01-01T04:55:04;98601.88;;;1.95;79.84
63287;BME280;49410;55.708;37.522;2023-01-01T04:57:29;98609.13;;;2.05;80.12
63287;BME280;49410;55.708;37.522;2023-01-01T04:59:55;98607.41;;;2.04;79.66
63287;BME280;49410;55.708;37.522;2023-01-01T05:02:20;98610.72;;;2.07;80.05
63287;BME280;49410;55.708;37.522;2023-01-01T05:04:46;98607.56;;;2.02;79.88
63287;BME280;49410;55.708;37.522;2023-01-01T05:07:11;98612.41;;;1.98;79.97
63287;BME280;49410;55.708;37.522;2023-01-01T05:09:37;98610.56;;;2.09;79.68
63287;BME280;49410;55.708;37.522;2023-01-01T05:12:02;98619.78;;;2.16;79.67
63287;BME280;49410;55.708;37.522;2023-01-01T05:14:28;98606.44;;;2.14;79.93
63287;BME280;49410;55.708;37.522;2023-01-01T05:16:53;98592.09;;;2.04;79.70
63287;BME280;49410;55.708;37.522;2023-01-01T05:19:19;98591.81;;;1.97;79.81
63287;BME280;49410;55.708;37.522;2023-01-01T05:21:44;98580.44;;;2.04;79.59
63287;BME280;49410;55.708;37.522;2023-01-01T05:24:10;98600.31;;;2.12;79.55
63287;BME280;49410;55.708;37.522;2023-01-01T05:26:39;98593.94;;;2.04;79.81
63287;BME280;49410;55.708;37.522;2023-01-01T05:29:05;98609.28;;;2.13;79.69
63287;BME280;49410;55.708;37.522;2023-01-01T05:31:33;98602.63;;;2.07;80.07
63287;BME280;49410;55.708;37.522;2023-01-01T05:33:59;98595.38;;;2.08;79.71
63287;BME280;49410;55.708;37.522;2023-01-01T05:36:31;98602.88;;;2.14;79.72
63287;BME280;49410;55.708;37.522;2023-01-01T05:38:58;98581.16;;;2.06;80.00
63287;BME280;49410;55.708;37.522;2023-01-01T05:41:24;98607.44;;;2.13;79.79
63287;BME280;49410;55.708;37.522;2023-01-01T05:43:51;98609.41;;;2.21;79.99
63287;BME280;49410;55.708;37.522;2023-01-01T05:46:21;98609.41;;;2.21;79.59
63287;BME280;49410;55.708;37.522;2023-01-01T05:48:48;98588.81;;;2.10;79.33
63287;BME280;49410;55.708;37.522;2023-01-01T05:51:16;98595.94;;;2.21;79.66
63287;BME280;49410;55.708;37.522;2023-01-01T05:53:42;98574.22;;;2.13;79.82
63287;BME280;49410;55.708;37.522;2023-01-01T05:56:09;98584.84;;;2.24;79.72
63287;BME280;49410;55.708;37.522;2023-01-01T05:58:35;98559.44;;;2.17;79.54
63287;BME280;49410;55.708;37.522;2023-01-01T06:03:38;98574.47;;;2.20;79.82
63287;BME280;49410;55.708;37.522;2023-01-01T06:06:06;98566.38;;;2.20;79.79
63287;BME280;49410;55.708;37.522;2023-01-01T06:08:32;98580.47;;;2.23;79.49
63287;BME280;49410;55.708;37.522;2023-01-01T06:11:03;98553.75;;;2.20;79.56
63287;BME280;49410;55.708;37.522;2023-01-01T06:13:29;98560.97;;;2.20;79.59
63287;BME280;49410;55.708;37.522;2023-01-01T06:15:55;98575.47;;;2.28;79.37
63287;BME280;49410;55.708;37.522;2023-01-01T06:18:22;98557.44;;;2.29;79.56
63287;BME280;49410;55.708;37.522;2023-01-01T06:20:47;98558.84;;;2.33;79.61
63287;BME280;49410;55.708;37.522;2023-01-01T06:23:13;98558.13;;;2.31;79.31
63287;BME280;49410;55.708;37.522;2023-01-01T06:25:39;98555.00;;;2.36;79.09
63287;BME280;49410;55.708;37.522;2023-01-01T06:28:05;98542.66;;;2.33;79.33
63287;BME280;49410;55.708;37.522;2023-01-01T06:30:31;98545.06;;;2.26;79.46
63287;BME280;49410;55.708;37.522;2023-01-01T06:32:59;98546.91;;;2.36;79.57
63287;BME280;49410;55.708;37.522;2023-01-01T06:35:24;98546.34;;;2.32;79.29
63287;BME280;49410;55.708;37.522;2023-01-01T06:37:50;98555.44;;;2.41;79.39
63287;BME280;49410;55.708;37.522;2023-01-01T06:40:16;98536.09;;;2.36;79.12
63287;BME280;49410;55.708;37.522;2023-01-01T06:42:41;98541.06;;;2.40;79.24
63287;BME280;49410;55.708;37.522;2023-01-01T06:45:09;98535.00;;;2.38;79.53
63287;BME280;49410;55.708;37.522;2023-01-01T06:47:35;98533.84;;;2.31;79.64
63287;BME280;49410;55.708;37.522;2023-01-01T06:50:04;98518.53;;;2.31;79.48
63287;BME280;49410;55.708;37.522;2023-01-01T06:52:30;98510.56;;;2.30;79.40
63287;BME280;49410;55.708;37.522;2023-01-01T06:54:56;98492.38;;;2.32;79.62
63287;BME280;49410;55.708;37.522;2023-01-01T06:57:22;98490.13;;;2.27;79.52
63287;BME280;49410;55.708;37.522;2023-01-01T06:59:48;98499.03;;;2.38;79.26
63287;BME280;49410;55.708;37.522;2023-01-01T07:02:13;98495.34;;;2.39;79.32
63287;BME280;49410;55.708;37.522;2023-01-01T07:04:39;98488.22;;;2.47;79.49
63287;BME280;49410;55.708;37.522;2023-01-01T07:07:04;98494.63;;;2.46;79.54
63287;BME280;49410;55.708;37.522;2023-01-01T07:09:30;98483.28;;;2.43;79.58
63287;BME280;49410;55.708;37.522;2023-01-01T07:11:55;98495.56;;;2.55;79.66
63287;BME280;49410;55.708;37.522;2023-01-01T07:14:21;98492.75;;;2.47;79.37
63287;BME280;49410;55.708;37.522;2023-01-01T07:16:46;98497.44;;;2.55;79.27
63287;BME280;49410;55.708;37.522;2023-01-01T07:19:12;98491.88;;;2.56;79.37
63287;BME280;49410;55.708;37.522;2023-01-01T07:21:43;98494.75;;;2.45;79.59
63287;BME280;49410;55.708;37.522;2023-01-01T07:24:11;98498.88;;;2.49;79.51
63287;BME280;49410;55.708;37.522;2023-01-01T07:26:38;98487.03;;;2.60;79.35
63287;BME280;49410;55.708;37.522;2023-01-01T07:29:04;98499.06;;;2.66;79.63
63287;BME280;49410;55.708;37.522;2023-01-01T07:31:30;98481.22;;;2.55;79.25
63287;BME280;49410;55.708;37.522;2023-01-01T07:33:55;98487.88;;;2.60;79.20
63287;BME280;49410;55.708;37.522;2023-01-01T07:36:21;98494.38;;;2.68;79.37
63287;BME280;49410;55.708;37.522;2023-01-01T07:38:46;98503.34;;;2.68;79.41
63287;BME280;49410;55.708;37.522;2023-01-01T07:41:12;98502.75;;;2.74;79.28
63287;BME280;49410;55.708;37.522;2023-01-01T07:43:37;98480.75;;;2.69;79.56
63287;BME280;49410;55.708;37.522;2023-01-01T07:46:03;98483.47;;;2.69;80.17
63287;BME280;49410;55.708;37.522;2023-01-01T07:48:29;98482.41;;;2.80;79.55
63287;BME280;49410;55.708;37.522;2023-01-01T07:50:55;98463.94;;;2.75;79.58
63287;BME280;49410;55.708;37.522;2023-01-01T07:53:20;98465.50;;;2.78;79.12
63287;BME280;49410;55.708;37.522;2023-01-01T07:55:46;98458.47;;;2.85;79.31
63287;BME280;49410;55.708;37.522;2023-01-01T07:58:12;98444.44;;;2.82;79.16
63287;BME280;49410;55.708;37.522;2023-01-01T08:00:38;98451.78;;;2.89;79.65
63287;BME280;49410;55.708;37.522;2023-01-01T08:03:03;98453.03;;;2.95;79.52
63287;BME280;49410;55.708;37.522;2023-01-01T08:05:30;98452.75;;;2.98;79.06
63287;BME280;49410;55.708;37.522;2023-01-01T08:07:55;98441.22;;;2.96;79.09
63287;BME280;49410;55.708;37.522;2023-01-01T08:10:21;98458.06;;;3.08;78.94
63287;BME280;49410;55.708;37.522;2023-01-01T08:12:46;98448.72;;;3.02;79.18
63287;BME280;49410;55.708;37.522;2023-01-01T08:15:13;98442.72;;;3.08;79.20
63287;BME280;49410;55.708;37.522;2023-01-01T08:17:39;98452.28;;;3.03;79.28
63287;BME280;49410;55.708;37.522;2023-01-01T08:20:05;98457.44;;;2.96;79.83
63287;BME280;49410;55.708;37.522;2023-01-01T08:22:31;98465.16;;;3.09;79.57
63287;BME280;49410;55.708;37.522;2023-01-01T08:24:57;98464.34;;;3.08;79.71
63287;BME280;49410;55.708;37.522;2023-01-01T08:27:22;98446.72;;;3.04;79.64
63287;BME280;49410;55.708;37.522;2023-01-01T08:29:48;98453.81;;;3.05;79.70
63287;BME280;49410;55.708;37.522;2023-01-01T08:32:13;98435.22;;;3.02;79.81
63287;BME280;49410;55.708;37.522;2023-01-01T08:34:39;98443.41;;;3.10;79.79
63287;BME280;49410;55.708;37.522;2023-01-01T08:37:05;98445.03;;;3.21;79.83
63287;BME280;49410;55.708;37.522;2023-01-01T08:39:31;98419.66;;;3.14;79.67
63287;BME280;49410;55.708;37.522;2023-01-01T08:41:56;98420.72;;;3.03;80.51
63287;BME280;49410;55.708;37.522;2023-01-01T08:44:22;98420.78;;;3.11;79.72
63287;BME280;49410;55.708;37.522;2023-01-01T08:46:47;98433.94;;;3.24;79.57
63287;BME280;49410;55.708;37.522;2023-01-01T08:49:13;98408.75;;;3.24;79.78
63287;BME280;49410;55.708;37.522;2023-01-01T08:51:39;98396.41;;;3.21;79.55
63287;BME280;49410;55.708;37.522;2023-01-01T08:54:05;98422.34;;;3.32;79.36
63287;BME280;49410;55.708;37.522;2023-01-01T08:56:30;98413.84;;;3.27;79.86
63287;BME280;49410;55.708;37.522;2023-01-01T08:58:56;98406.59;;;3.28;79.58
63287;BME280;49410;55.708;37.522;2023-01-01T09:01:21;98418.97;;;3.30;80.17
63287;BME280;49410;55.708;37.522;2023-01-01T09:03:48;98422.50;;;3.31;80.14
63287;BME280;49410;55.708;37.522;2023-01-01T09:06:13;98422.88;;;3.36;80.21
63287;BME280;49410;55.708;37.522;2023-01-01T09:08:39;98413.56;;;3.30;79.84
63287;BME280;49410;55.708;37.522;2023-01-01T09:11:04;98424.97;;;3.42;80.11
63287;BME280;49410;55.708;37.522;2023-01-01T09:13:30;98404.13;;;3.34;79.97
63287;BME280;49410;55.708;37.522;2023-01-01T09:15:56;98400.72;;;3.32;80.26
63287;BME280;49410;55.708;37.522;2023-01-01T09:18:22;98404.41;;;3.31;80.23
63287;BME280;49410;55.708;37.522;2023-01-01T09:20:48;98408.34;;;3.37;80.03
63287;BME280;49410;55.708;37.522;2023-01-01T09:23:15;98372.31;;;3.28;80.09
63287;BME280;49410;55.708;37.522;2023-01-01T09:25:40;98382.66;;;3.33;80.83
63287;BME280;49410;55.708;37.522;2023-01-01T09:28:09;98387.59;;;3.37;80.63
63287;BME280;49410;55.708;37.522;2023-01-01T09:30:35;98375.31;;;3.43;80.52
63287;BME280;49410;55.708;37.522;2023-01-01T09:33:02;98380.56;;;3.45;80.41
63287;BME280;49410;55.708;37.522;2023-01-01T09:35:28;98375.09;;;3.36;80.42
63287;BME280;49410;55.708;37.522;2023-01-01T09:37:54;98376.31;;;3.42;80.49
63287;BME280;49410;55.708;37.522;2023-01-01T09:40:47;98375.91;;;3.55;80.37
63287;BME280;49410;55.708;37.522;2023-01-01T09:46:15;98372.50;;;3.53;80.44
63287;BME280;49410;55.708;37.522;2023-01-01T09:48:58;98359.38;;;3.58;80.03
63287;BME280;49410;55.708;37.522;2023-01-01T09:51:29;98344.63;;;3.52;79.64
63287;BME280;49410;55.708;37.522;2023-01-01T09:54:10;98367.31;;;3.60;79.59
63287;BME280;49410;55.708;37.522;2023-01-01T09:56:39;98372.19;;;3.56;80.15
63287;BME280;49410;55.708;37.522;2023-01-01T09:59:11;98343.41;;;3.47;80.11
63287;BME280;49410;55.708;37.522;2023-01-01T10:01:45;98363.13;;;3.65;80.18
63287;BME280;49410;55.708;37.522;2023-01-01T10:04:24;98364.63;;;3.60;79.80
63287;BME280;49410;55.708;37.522;2023-01-01T10:14:40;98331.38;;;3.67;79.97
63287;BME280;49410;55.708;37.522;2023-01-01T10:17:16;98327.34;;;3.71;79.78
63287;BME280;49410;55.708;37.522;2023-01-01T10:19:48;98322.97;;;3.70;79.64
63287;BME280;49410;55.708;37.522;2023-01-01T10:22:34;98305.34;;;3.66;79.89
63287;BME280;49410;55.708;37.522;2023-01-01T10:28:01;98312.88;;;3.81;79.59
63287;BME280;49410;55.708;37.522;2023-01-01T10:30:29;98297.16;;;3.76;79.79
63287;BME280;49410;55.708;37.522;2023-01-01T10:32:55;98288.00;;;3.77;79.18
63287;BME280;49410;55.708;37.522;2023-01-01T10:35:45;98290.81;;;3.94;79.23
63287;BME280;49410;55.708;37.522;2023-01-01T10:38:21;98281.97;;;3.83;79.70
63287;BME280;49410;55.708;37.522;2023-01-01T10:40:48;98271.50;;;3.88;79.25
63287;BME280;49410;55.708;37.522;2023-01-01T10:43:14;98277.41;;;3.92;79.47
63287;BME280;49410;55.708;37.522;2023-01-01T10:45:46;98275.75;;;3.91;79.25
63287;BME280;49410;55.708;37.522;2023-01-01T10:50:45;98288.97;;;4.02;79.18
63287;BME280;49410;55.708;37.522;2023-01-01T10:53:40;98276.63;;;4.00;79.09
63287;BME280;49410;55.708;37.522;2023-01-01T10:56:10;98269.19;;;4.02;79.01
63287;BME280;49410;55.708;37.522;2023-01-01T10:58:48;98268.53;;;4.08;79.01
63287;BME280;49410;55.708;37.522;2023-01-01T11:01:28;98267.88;;;4.06;78.87
63287;BME280;49410;55.708;37.522;2023-01-01T11:06:33;98267.81;;;3.98;79.18
63287;BME280;49410;55.708;37.522;2023-01-01T11:09:02;98261.06;;;4.02;79.02
63287;BME280;49410;55.708;37.522;2023-01-01T11:11:30;98262.47;;;4.06;79.01
63287;BME280;49410;55.708;37.522;2023-01-01T11:13:58;98262.47;;;4.06;78.78
63287;BME280;49410;55.708;37.522;2023-01-01T11:16:26;98260.75;;;4.05;79.24
63287;BME280;49410;55.708;37.522;2023-01-01T11:19:00;98258.88;;;3.97;79.38
63287;BME280;49410;55.708;37.522;2023-01-01T11:21:27;98236.50;;;3.87;79.28
63287;BME280;49410;55.708;37.522;2023-01-01T11:24:15;98250.38;;;3.92;79.67
63287;BME280;49410;55.708;37.522;2023-01-01T11:26:42;98248.88;;;3.98;79.86
63287;BME280;49410;55.708;37.522;2023-01-01T11:29:22;98249.91;;;3.97;79.66
63287;BME280;49410;55.708;37.522;2023-01-01T11:31:49;98251.63;;;4.06;79.53
63287;BME280;49410;55.708;37.522;2023-01-01T11:34:35;98246.88;;;4.00;79.82
63287;BME280;49410;55.708;37.522;2023-01-01T11:39:44;98225.91;;;4.02;79.71
63287;BME280;49410;55.708;37.522;2023-01-01T11:42:25;98236.72;;;4.02;79.96
63287;BME280;49410;55.708;37.522;2023-01-01T11:45:19;98224.88;;;3.95;80.25
63287;BME280;49410;55.708;37.522;2023-01-01T11:47:52;98218.47;;;3.96;80.27
63287;BME280;49410;55.708;37.522;2023-01-01T11:50:39;98229.31;;;4.04;80.06
63287;BME280;49410;55.708;37.522;2023-01-01T11:53:28;98206.09;;;3.93;80.04
63287;BME280;49410;55.708;37.522;2023-01-01T12:04:38;98209.69;;;4.10;80.50
63287;BME280;49410;55.708;37.522;2023-01-01T12:07:07;98187.34;;;3.92;80.50
63287;BME280;49410;55.708;37.522;2023-01-01T12:09:41;98209.00;;;4.08;80.52
63287;BME280;49410;55.708;37.522;2023-01-01T12:12:19;98186.84;;;4.04;80.24
63287;BME280;49410;55.708;37.522;2023-01-01T12:15:00;98200.94;;;4.16;80.50
63287;BME280;49410;55.708;37.522;2023-01-01T12:17:35;98191.56;;;4.02;80.35
63287;BME280;49410;55.708;37.522;2023-01-01T12:22:48;98193.47;;;4.18;80.51
63287;BME280;49410;55.708;37.522;2023-01-01T12:25:17;98185.34;;;4.18;80.51
63287;BME280;49410;55.708;37.522;2023-01-01T12:36:19;98178.44;;;4.16;80.78
63287;BME280;49410;55.708;37.522;2023-01-01T12:41:55;98176.75;;;4.23;80.87
63287;BME280;49410;55.708;37.522;2023-01-01T12:57:47;98170.84;;;4.28;80.41
63287;BME280;49410;55.708;37.522;2023-01-01T13:00:17;98168.63;;;4.23;80.29
63287;BME280;49410;55.708;37.522;2023-01-01T13:02:59;98178.63;;;4.39;80.34
63287;BME280;49410;55.708;37.522;2023-01-01T13:05:44;98186.09;;;4.45;80.30
63287;BME280;49410;55.708;37.522;2023-01-01T13:08:12;98172.72;;;4.44;80.00
63287;BME280;49410;55.708;37.522;2023-01-01T13:10:40;98159.03;;;4.37;80.04
63287;BME280;49410;55.708;37.522;2023-01-01T13:13:07;98165.09;;;4.39;80.38
63287;BME280;49410;55.708;37.522;2023-01-01T13:18:18;98140.41;;;4.34;80.33
63287;BME280;49410;55.708;37.522;2023-01-01T13:20:53;98160.53;;;4.40;80.61
63287;BME280;49410;55.708;37.522;2023-01-01T13:26:30;98159.69;;;4.39;80.63
63287;BME280;49410;55.708;37.522;2023-01-01T13:40:01;98113.84;;;4.29;80.64
63287;BME280;49410;55.708;37.522;2023-01-01T13:56:54;98140.59;;;4.41;80.74
63287;BME280;49410;55.708;37.522;2023-01-01T14:02:56;98123.16;;;4.35;81.55
63287;BME280;49410;55.708;37.522;2023-01-01T14:05:36;98137.38;;;4.37;81.15
63287;BME280;49410;55.708;37.522;2023-01-01T14:08:03;98145.31;;;4.39;80.77
63287;BME280;49410;55.708;37.522;2023-01-01T14:10:36;98125.00;;;4.34;80.65
63287;BME280;49410;55.708;37.522;2023-01-01T14:15:32;98140.09;;;4.45;81.26
63287;BME280;49410;55.708;37.522;2023-01-01T14:18:02;98117.56;;;4.37;81.13
63287;BME280;49410;55.708;37.522;2023-01-01T14:20:36;98126.53;;;4.45;80.95
63287;BME280;49410;55.708;37.522;2023-01-01T14:23:08;98112.31;;;4.43;80.91
63287;BME280;49410;55.708;37.522;2023-01-01T14:25:35;98112.50;;;4.42;81.26
63287;BME280;49410;55.708;37.522;2023-01-01T14:28:01;98097.59;;;4.38;81.49
63287;BME280;49410;55.708;37.522;2023-01-01T14:30:30;98091.88;;;4.41;81.17
63287;BME280;49410;55.708;37.522;2023-01-01T14:33:00;98101.31;;;4.45;81.38
63287;BME280;49410;55.708;37.522;2023-01-01T14:35:27;98113.19;;;4.52;81.32
63287;BME280;49410;55.708;37.522;2023-01-01T14:37:53;98104.38;;;4.50;81.15
63287;BME280;49410;55.708;37.522;2023-01-01T14:40:22;98113.16;;;4.44;81.51
63287;BME280;49410;55.708;37.522;2023-01-01T14:42:56;98094.56;;;4.49;80.94
63287;BME280;49410;55.708;37.522;2023-01-01T14:45:23;98104.19;;;4.51;81.55
63287;BME280;49410;55.708;37.522;2023-01-01T14:47:51;98098.28;;;4.48;81.84
63287;BME280;49410;55.708;37.522;2023-01-01T14:50:31;98092.84;;;4.56;81.55
63287;BME280;49410;55.708;37.522;2023-01-01T14:53:04;98085.41;;;4.58;81.71
63287;BME280;49410;55.708;37.522;2023-01-01T14:55:48;98076.09;;;4.61;81.60
63287;BME280;49410;55.708;37.522;2023-01-01T14:58:23;98078.97;;;4.59;81.83
63287;BME280;49410;55.708;37.522;2023-01-01T15:00:50;98073.75;;;4.58;81.52
63287;BME280;49410;55.708;37.522;2023-01-01T15:03:16;98072.88;;;4.57;81.41
63287;BME280;49410;55.708;37.522;2023-01-01T15:05:44;98070.88;;;4.51;81.88
63287;BME280;49410;55.708;37.522;2023-01-01T15:08:20;98069.19;;;4.50;81.59
63287;BME280;49410;55.708;37.522;2023-01-01T15:10:46;98056.31;;;4.44;81.86
63287;BME280;49410;55.708;37.522;2023-01-01T15:13:17;98077.09;;;4.60;81.97
63287;BME280;49410;55.708;37.522;2023-01-01T15:15:44;98074.75;;;4.65;82.14
63287;BME280;49410;55.708;37.522;2023-01-01T15:19:09;98087.28;;;4.58;82.38
63287;BME280;49410;55.708;37.522;2023-01-01T15:23:58;98069.00;;;4.60;81.86